Time;durP1;ratioP1;P1;durP2;ratioP2;P2;SDS_P1;SDS_P2;PMS_P1;PMS_P2;Temp;Humidity;BMP_temperature;BMP_pressure;BME280_temperature;BME280_humidity;BME280_pressure;Samples;Min_cycle;Max_cycle;Signal;HPM_P1;HPM_P2
2022/05/23 00:00:58;;;;;;;;;5.25;5.25;;;;;20.30;51.41;99903.56;5088127;27;64901;-61
2022/05/23 00:03:24;;;;;;;;;7.75;6.00;;;;;20.30;51.55;99922.16;5088518;27;71005;-61
2022/05/23 00:05:49;;;;;;;;;7.00;7.00;;;;;20.28;51.36;99919.63;5093604;27;45306;-60
2022/05/23 00:08:15;;;;;;;;;5.00;5.00;;;;;20.29;51.27;99908.03;5087292;27;62379;-60
2022/05/23 00:10:40;;;;;;;;;6.50;6.50;;;;;20.29;51.22;99908.03;5092399;27;65748;-60
2022/05/23 00:13:06;;;;;;;;;7.50;5.75;;;;;20.30;51.53;99916.84;5090533;27;46286;-61
2022/05/23 00:15:32;;;;;;;;;4.75;4.75;;;;;20.30;51.70;99933.63;5098153;27;45472;-60
2022/05/23 00:17:57;;;;;;;;;4.00;4.00;;;;;20.30;51.67;99930.97;5085893;27;45529;-60
2022/05/23 00:20:24;;;;;;;;;5.00;5.00;;;;;20.30;51.46;99915.03;5093198;27;66929;-60
2022/05/23 00:22:50;;;;;;;;;7.00;5.25;;;;;20.32;51.82;99901.63;5102846;27;46593;-60
2022/05/23 00:25:15;;;;;;;;;7.25;6.00;;;;;20.32;51.48;99901.63;5093767;27;45307;-59
2022/05/23 00:27:42;;;;;;;;;4.75;4.00;;;;;20.33;51.19;99886.50;5085931;27;60083;-60
2022/05/23 00:30:11;;;;;;;;;8.50;5.50;;;;;20.34;51.56;99886.38;5091038;27;45416;-60
2022/05/23 00:35:21;;;;;;;;;5.00;4.00;;;;;20.32;50.96;99875.03;5097782;27;45845;-60
2022/05/23 00:37:47;;;;;;;;;7.00;6.00;;;;;20.29;51.73;99872.63;5097640;27;45276;-60
2022/05/23 00:40:30;;;;;;;;;6.50;5.25;;;;;20.29;51.67;99873.50;5098190;27;46070;-60
2022/05/23 00:43:14;;;;;;;;;3.75;3.75;;;;;20.32;51.37;99863.56;5064335;28;46766;-60
2022/05/23 00:45:47;;;;;;;;;5.00;4.25;;;;;20.29;51.69;99859.34;5068649;27;45694;-60
2022/05/23 00:48:13;;;;;;;;;5.00;5.00;;;;;20.32;51.19;99859.09;5092626;27;45299;-60
2022/05/23 00:50:41;;;;;;;;;4.00;4.00;;;;;20.32;51.14;99851.13;5094251;27;46807;-60
2022/05/23 00:53:08;;;;;;;;;8.50;5.75;;;;;20.33;51.61;99852.81;5082930;27;46954;-60
2022/05/23 00:55:38;;;;;;;;;4.00;4.00;;;;;20.33;51.12;99847.50;5079068;27;45777;-61
2022/05/23 00:58:07;;;;;;;;;5.00;5.00;;;;;20.32;51.21;99840.50;5096916;27;46856;-59
2022/05/23 01:00:33;;;;;;;;;5.25;3.00;;;;;20.33;51.47;99841.34;5082210;27;45563;-59
2022/05/23 01:03:04;;;;;;;;;5.00;4.00;;;;;20.32;51.39;99832.53;5071416;27;46073;-60
2022/05/23 01:05:30;;;;;;;;;4.25;4.25;;;;;20.34;51.19;99845.69;5080071;27;46063;-60
2022/05/23 01:07:55;;;;;;;;;5.00;4.00;;;;;20.34;51.15;99835.91;5069218;27;45600;-60
2022/05/23 01:10:21;;;;;;;;;5.00;4.50;;;;;20.34;51.34;99830.59;5073648;27;49300;-60
2022/05/23 01:12:46;;;;;;;;;7.00;5.00;;;;;20.33;51.33;99825.38;5094407;27;45220;-60
2022/05/23 01:15:20;;;;;;;;;4.25;3.75;;;;;20.30;51.19;99810.56;5095829;27;64086;-60
2022/05/23 01:17:46;;;;;;;;;5.75;5.25;;;;;20.30;51.36;99794.63;5089284;27;45320;-59
2022/05/23 01:20:12;;;;;;;;;5.75;3.75;;;;;20.30;51.27;99784.81;5085772;27;46190;-59
2022/05/23 01:22:49;;;;;;;;;5.00;5.00;;;;;20.30;51.11;99789.31;5096027;27;46191;-59
2022/05/23 01:25:17;;;;;;;;;4.00;3.25;;;;;20.27;51.08;99785.09;5079577;27;45489;-59
2022/05/23 01:27:43;;;;;;;;;4.25;4.25;;;;;20.23;51.68;99765.03;5099124;27;45300;-59
2022/05/23 01:30:09;;;;;;;;;3.75;3.75;;;;;20.25;51.49;99756.94;5079658;27;45569;-59
2022/05/23 01:32:35;;;;;;;;;4.75;4.75;;;;;20.23;51.46;99753.59;5095188;27;46041;-60
2022/05/23 01:35:00;;;;;;;;;7.50;5.00;;;;;20.21;51.60;99755.53;5089164;27;45206;-60
2022/05/23 01:37:26;;;;;;;;;4.00;2.00;;;;;20.17;51.45;99744.31;5100778;27;57255;-59
2022/05/23 01:39:51;;;;;;;;;6.75;5.00;;;;;20.16;51.68;99741.78;5094421;27;45510;-59
2022/05/23 01:42:16;;;;;;;;;5.00;4.25;;;;;20.12;52.02;99738.53;5085492;27;68287;-59
2022/05/23 01:44:42;;;;;;;;;8.00;4.50;;;;;20.10;51.45;99729.88;5077742;27;45582;-59
2022/05/23 01:47:13;;;;;;;;;4.25;4.25;;;;;20.06;51.66;99716.00;5097636;27;45373;-58
2022/05/23 01:49:39;;;;;;;;;5.00;5.00;;;;;20.05;51.68;99714.28;5072074;27;45216;-59
2022/05/23 01:52:07;;;;;;;;;5.75;5.75;;;;;20.03;52.06;99702.13;5091924;27;47703;-59
2022/05/23 01:54:32;;;;;;;;;6.25;5.00;;;;;20.02;52.00;99695.13;5083585;27;46017;-60
2022/05/23 01:56:57;;;;;;;;;8.00;7.00;;;;;20.00;51.84;99691.75;5094035;27;45463;-60
2022/05/23 02:02:07;;;;;;;;;6.00;4.50;;;;;19.94;52.23;99697.56;5094465;27;45674;-60
2022/05/23 02:04:33;;;;;;;;;3.75;3.75;;;;;19.83;51.94;99682.53;5093212;27;45521;-60
2022/05/23 02:06:58;;;;;;;;;5.50;5.00;;;;;19.88;52.08;99680.31;5092876;27;45415;-59
2022/05/23 02:09:27;;;;;;;;;5.75;5.00;;;;;19.86;52.68;99687.59;5096358;27;45505;-60
2022/05/23 02:11:53;;;;;;;;;6.50;6.00;;;;;19.83;52.43;99687.81;5092972;27;47132;-59
2022/05/23 02:14:19;;;;;;;;;5.50;4.75;;;;;19.80;52.34;99675.66;5091710;27;45254;-59
2022/05/23 02:16:44;;;;;;;;;8.00;6.00;;;;;19.78;52.77;99680.25;5096174;27;49319;-60
2022/05/23 02:19:09;;;;;;;;;4.50;4.50;;;;;19.76;52.81;99690.16;5096855;27;66268;-59
2022/05/23 02:21:35;;;;;;;;;7.00;6.25;;;;;19.74;52.90;99694.72;5088917;27;46018;-60
2022/05/23 02:24:03;;;;;;;;;6.00;6.00;;;;;19.73;53.09;99706.31;5088021;27;45232;-59
2022/05/23 02:26:29;;;;;;;;;11.00;7.50;;;;;19.74;53.14;99700.03;5099060;27;45547;-59
2022/05/23 02:28:54;;;;;;;;;8.75;7.00;;;;;19.72;53.16;99699.28;5087314;27;45518;-59
2022/05/23 02:31:20;;;;;;;;;7.00;7.00;;;;;19.72;52.94;99701.94;5095361;27;47141;-59
2022/05/23 02:33:45;;;;;;;;;9.75;6.50;;;;;19.70;53.00;99718.00;5087995;27;67637;-59
2022/05/23 02:36:10;;;;;;;;;6.00;6.00;;;;;19.69;53.28;99708.38;5088167;27;61971;-60
2022/05/23 02:38:36;;;;;;;;;4.25;4.25;;;;;19.70;52.81;99714.50;5093629;27;66645;-59
2022/05/23 02:41:01;;;;;;;;;5.00;5.00;;;;;19.70;53.17;99718.00;5084900;27;50421;-59
2022/05/23 02:43:27;;;;;;;;;5.00;5.00;;;;;19.70;53.04;99704.72;5094278;27;66282;-60
2022/05/23 02:45:52;;;;;;;;;6.50;6.50;;;;;19.70;53.35;99709.19;5092325;27;45414;-60
2022/05/23 02:48:18;;;;;;;;;6.00;6.00;;;;;19.67;53.14;99707.66;5092947;27;63477;-60
2022/05/23 02:50:43;;;;;;;;;5.00;5.00;;;;;19.67;53.26;99715.63;5096310;27;70076;-59
2022/05/23 02:53:08;;;;;;;;;5.75;5.75;;;;;19.66;53.40;99718.41;5084254;27;66744;-59
2022/05/23 02:55:34;;;;;;;;;7.00;6.00;;;;;19.64;53.37;99712.38;5086311;27;62094;-60
2022/05/23 02:57:59;;;;;;;;;6.00;6.00;;;;;19.62;53.57;99709.84;5090901;27;45226;-59
2022/05/23 03:00:25;;;;;;;;;8.75;6.00;;;;;19.61;53.52;99709.97;5093921;27;45300;-59
2022/05/23 03:03:02;;;;;;;;;6.00;5.25;;;;;19.58;53.40;99697.75;5098279;27;45536;-59
2022/05/23 03:05:42;;;;;;;;;7.75;5.00;;;;;19.58;53.69;99704.91;5093531;27;45393;-59
2022/05/23 03:08:09;;;;;;;;;6.75;5.75;;;;;19.57;53.65;99697.91;5088925;27;45215;-59
2022/05/23 03:10:36;;;;;;;;;3.50;3.00;;;;;19.59;53.27;99712.72;5091576;27;46122;-58
2022/05/23 03:13:02;;;;;;;;;5.25;5.25;;;;;19.61;53.69;99720.56;5094856;27;45270;-58
2022/05/23 03:15:28;;;;;;;;;6.25;6.00;;;;;19.60;53.49;99719.75;5093082;27;45378;-59
2022/05/23 03:17:54;;;;;;;;;4.50;4.50;;;;;19.58;53.87;99728.78;5087061;27;45613;-60
2022/05/23 03:20:20;;;;;;;;;8.00;6.00;;;;;19.59;53.59;99728.66;5097160;27;45331;-59
2022/05/23 03:28:13;;;;;;;;;8.00;5.00;;;;;19.61;53.67;99707.31;5095486;27;47006;-59
2022/05/23 03:30:39;;;;;;;;;6.50;5.75;;;;;19.62;53.84;99687.75;5096863;27;45609;-59
2022/05/23 03:33:04;;;;;;;;;5.75;4.75;;;;;19.65;53.79;99691.00;5095124;27;46022;-60
2022/05/23 03:35:31;;;;;;;;;9.00;8.00;;;;;19.65;53.69;99679.53;5090434;27;45522;-60
2022/05/23 03:37:57;;;;;;;;;9.75;6.00;;;;;19.69;53.44;99673.88;5098044;27;45501;-59
2022/05/23 03:40:22;;;;;;;;;6.00;5.25;;;;;19.69;53.50;99657.94;5091461;27;47935;-59
2022/05/23 03:42:48;;;;;;;;;8.00;6.00;;;;;19.71;53.58;99655.16;5092348;27;45362;-60
2022/05/23 03:45:15;;;;;;;;;8.50;6.00;;;;;19.69;53.61;99649.97;5098803;27;45267;-59
2022/05/23 03:47:40;;;;;;;;;9.00;5.75;;;;;19.68;53.67;99636.81;5090991;27;45453;-59
2022/05/23 03:50:06;;;;;;;;;7.75;6.00;;;;;19.68;53.74;99650.94;5083348;27;46011;-60
2022/05/23 03:52:31;;;;;;;;;6.00;6.00;;;;;19.70;53.78;99658.78;5079931;27;45195;-59
2022/05/23 03:54:57;;;;;;;;;6.00;4.75;;;;;19.69;54.06;99647.31;5087901;27;45550;-60
2022/05/23 03:57:23;;;;;;;;;7.00;6.75;;;;;19.68;53.91;99658.91;5071709;27;45507;-60
2022/05/23 03:59:49;;;;;;;;;6.25;6.00;;;;;19.70;53.76;99658.78;5094570;27;46161;-60
2022/05/23 04:02:14;;;;;;;;;6.00;6.00;;;;;19.67;53.78;99651.91;5085811;27;45485;-59
2022/05/23 04:04:39;;;;;;;;;5.00;5.00;;;;;19.65;54.04;99656.47;5093849;27;47023;-59
2022/05/23 04:07:06;;;;;;;;;6.00;5.00;;;;;19.64;54.09;99648.66;5083263;27;62358;-59
2022/05/23 04:09:31;;;;;;;;;6.50;5.00;;;;;19.62;54.08;99643.50;5091971;27;45347;-59
2022/05/23 04:11:57;;;;;;;;;6.00;5.75;;;;;19.64;54.12;99638.88;5091440;27;45285;-59
2022/05/23 04:14:23;;;;;;;;;4.25;4.25;;;;;19.63;54.12;99631.06;5078330;27;45409;-59
2022/05/23 04:16:49;;;;;;;;;9.75;6.50;;;;;19.58;54.05;99609.34;5100674;27;45243;-59
2022/05/23 04:19:15;;;;;;;;;6.00;6.00;;;;;19.57;54.27;99602.38;5090596;27;46105;-59
2022/05/23 04:21:42;;;;;;;;;6.75;5.00;;;;;19.59;54.46;99619.00;5080445;27;45936;-59
2022/05/23 04:24:08;;;;;;;;;6.25;3.75;;;;;19.53;54.51;99617.72;5086201;27;45524;-58
2022/05/23 04:26:33;;;;;;;;;5.25;4.75;;;;;19.56;54.27;99616.59;5091720;27;45509;-58
2022/05/23 04:28:59;;;;;;;;;7.75;6.00;;;;;19.51;54.19;99596.59;5083989;27;60333;-59
2022/05/23 04:31:24;;;;;;;;;7.00;6.00;;;;;19.58;54.78;99591.59;5094835;27;66210;-58
2022/05/23 04:36:34;;;;;;;;;9.00;6.00;;;;;19.56;54.93;99560.88;5089576;27;45517;-58
2022/05/23 04:38:59;;;;;;;;;7.50;5.00;;;;;19.54;55.46;99558.34;5065497;27;46757;-59
2022/05/23 04:41:25;;;;;;;;;7.25;7.00;;;;;19.46;55.43;99564.31;5085095;27;45500;-58
2022/05/23 04:43:50;;;;;;;;;7.00;3.50;;;;;19.47;55.68;99544.75;5066893;27;45308;-58
2022/05/23 04:46:16;;;;;;;;;5.75;4.00;;;;;19.50;55.91;99556.94;5089943;27;45515;-58
2022/05/23 04:51:25;;;;;;;;;6.00;5.25;;;;;19.54;56.23;99579.56;5096216;27;45442;-58
2022/05/23 04:53:55;;;;;;;;;6.00;6.00;;;;;19.56;56.14;99590.91;5082169;27;58136;-59
2022/05/23 04:56:25;;;;;;;;;5.00;4.00;;;;;19.57;56.40;99581.16;5095396;27;45371;-58
2022/05/23 04:58:50;;;;;;;;;3.75;3.00;;;;;19.58;56.45;99569.53;5073127;27;46818;-59
2022/05/23 05:01:16;;;;;;;;;6.75;6.50;;;;;19.61;56.43;99583.41;5085404;27;45339;-58
2022/05/23 05:03:41;;;;;;;;;6.00;5.00;;;;;19.63;56.45;99573.50;5087831;27;57315;-59
2022/05/23 05:06:06;;;;;;;;;4.75;4.00;;;;;19.64;56.56;99574.34;5095928;27;45384;-59
2022/05/23 05:08:32;;;;;;;;;7.25;6.00;;;;;19.66;56.27;99569.75;5092654;27;55036;-59
2022/05/23 05:10:57;;;;;;;;;4.00;4.00;;;;;19.63;56.54;99554.91;5085885;27;60433;-59
2022/05/23 05:13:23;;;;;;;;;5.00;5.00;;;;;19.62;56.70;99553.25;5087632;27;45273;-59
2022/05/23 05:15:49;;;;;;;;;7.00;5.00;;;;;19.62;56.42;99539.13;5093809;27;45210;-59
2022/05/23 05:18:14;;;;;;;;;5.00;5.00;;;;;19.62;56.38;99525.84;5092439;27;45615;-59
2022/05/23 05:20:40;;;;;;;;;9.75;6.00;;;;;19.61;56.06;99527.66;5097658;27;45508;-59
2022/05/23 05:23:05;;;;;;;;;6.00;6.00;;;;;19.59;56.28;99539.41;5096980;27;61289;-59
2022/05/23 05:25:31;;;;;;;;;8.00;6.25;;;;;19.56;56.72;99551.09;5078489;27;59596;-59
2022/05/23 05:27:57;;;;;;;;;11.25;9.00;;;;;19.58;56.42;99540.34;5094881;27;46137;-59
2022/05/23 05:30:23;;;;;;;;;47.75;35.75;;;;;19.58;56.69;99524.44;5100259;27;45339;-59
2022/05/23 05:33:06;;;;;;;;;14.50;11.00;;;;;19.57;56.90;99518.28;5093462;27;45376;-59
2022/05/23 05:35:40;;;;;;;;;15.50;12.25;;;;;19.58;56.64;99527.91;5073210;27;45594;-59
2022/05/23 05:38:40;;;;;;;;;12.25;11.25;;;;;19.57;56.41;99536.03;5076614;27;46278;-59
2022/05/23 05:41:09;;;;;;;;;12.00;10.75;;;;;19.54;56.63;99522.03;5076058;27;45415;-59
2022/05/23 05:43:41;;;;;;;;;8.25;8.25;;;;;19.57;56.34;99544.00;5057258;28;45293;-59
2022/05/23 05:46:16;;;;;;;;;8.75;7.00;;;;;19.58;56.57;99556.28;5065778;27;45436;-59
2022/05/23 05:48:46;;;;;;;;;5.25;1.75;;;;;19.59;56.67;99566.78;5088361;27;45694;-59
2022/05/23 05:51:14;;;;;;;;;10.75;9.50;;;;;19.60;56.99;99560.50;5078099;27;45398;-59
2022/05/23 05:53:39;;;;;;;;;9.50;8.75;;;;;19.59;56.74;99547.34;5068204;27;45433;-59
2022/05/23 05:56:05;;;;;;;;;10.25;8.25;;;;;19.61;56.67;99546.25;5088213;27;66164;-58
2022/05/23 05:58:32;;;;;;;;;20.25;16.25;;;;;19.64;56.71;99546.00;5071160;27;57046;-59
2022/05/23 06:00:58;;;;;;;;;39.50;31.00;;;;;19.67;56.68;99529.81;5073051;27;45813;-58
2022/05/23 06:03:23;;;;;;;;;13.25;11.00;;;;;19.73;57.12;99523.16;5086801;27;45162;-59
2022/05/23 06:11:23;;;;;;;;;11.00;7.75;;;;;19.94;56.99;99538.22;5085547;27;45920;-62
2022/05/23 06:13:49;;;;;;;;;10.75;8.50;;;;;19.99;56.92;99547.50;5095905;27;45457;-63
2022/05/23 06:16:15;;;;;;;;;8.00;8.00;;;;;20.01;56.99;99542.91;5092100;27;45382;-63
2022/05/23 06:18:42;;;;;;;;;6.50;6.00;;;;;20.04;56.74;99555.06;5083117;27;46534;-63
2022/05/23 06:21:09;;;;;;;;;6.25;6.00;;;;;20.04;56.92;99557.72;5093031;27;45671;-63
2022/05/23 06:23:36;;;;;;;;;9.25;8.00;;;;;20.06;56.74;99559.28;5092243;27;45449;-62
2022/05/23 06:26:01;;;;;;;;;9.75;8.00;;;;;20.10;56.95;99554.56;5091096;27;45605;-63
2022/05/23 06:28:26;;;;;;;;;7.75;7.50;;;;;20.13;56.76;99550.78;5097749;27;54437;-61
2022/05/23 06:30:52;;;;;;;;;8.00;8.00;;;;;20.15;57.10;99530.25;5081114;27;67384;-62
2022/05/23 06:33:17;;;;;;;;;6.50;5.25;;;;;20.18;57.16;99524.66;5088647;27;45976;-61
2022/05/23 06:35:42;;;;;;;;;9.00;7.25;;;;;20.19;56.94;99521.88;5097741;27;62127;-63
2022/05/23 06:38:08;;;;;;;;;9.00;7.25;;;;;20.22;57.18;99511.00;5086994;27;45991;-62
2022/05/23 06:40:34;;;;;;;;;8.25;8.25;;;;;20.23;56.78;99507.34;5086927;27;64251;-63
2022/05/23 06:43:01;;;;;;;;;12.25;8.00;;;;;20.16;57.15;99492.09;5081330;27;45374;-63
2022/05/23 06:45:26;;;;;;;;;8.50;7.00;;;;;20.19;57.48;99484.69;5065273;27;45527;-62
2022/05/23 06:47:52;;;;;;;;;7.75;6.75;;;;;20.22;57.39;99489.75;5087758;27;45438;-62
2022/05/23 06:50:17;;;;;;;;;8.25;6.00;;;;;20.25;57.48;99491.28;5084353;27;63374;-63
2022/05/23 06:52:42;;;;;;;;;13.00;7.00;;;;;20.26;57.38;99490.31;5088827;27;45501;-60
2022/05/23 06:55:08;;;;;;;;;8.50;7.00;;;;;20.27;57.37;99495.50;5072423;27;47626;-61
2022/05/23 06:57:34;;;;;;;;;6.25;5.75;;;;;20.32;57.38;99488.94;5089226;27;45570;-60
2022/05/23 06:59:59;;;;;;;;;9.50;7.00;;;;;20.37;57.59;99489.38;5086320;27;45202;-61
2022/05/23 07:02:24;;;;;;;;;8.00;7.00;;;;;20.38;57.43;99493.69;5079989;27;58121;-61
2022/05/23 07:13:02;;;;;;;;;9.75;6.25;;;;;20.38;57.82;99477.75;5091646;27;45489;-62
2022/05/23 07:15:27;;;;;;;;;7.25;7.25;;;;;20.41;57.77;99478.31;5092131;27;45620;-62
2022/05/23 07:17:53;;;;;;;;;8.25;7.25;;;;;20.41;57.61;99482.81;5090915;27;46027;-62
2022/05/23 07:20:18;;;;;;;;;8.50;7.75;;;;;20.40;57.50;99489.94;5094220;27;45478;-63
2022/05/23 07:22:44;;;;;;;;;10.25;6.50;;;;;20.44;57.70;99490.50;5094376;27;45577;-64
2022/05/23 07:25:09;;;;;;;;;19.75;15.25;;;;;20.46;57.93;99494.69;5100519;27;45283;-63
2022/05/23 07:27:34;;;;;;;;;11.00;8.00;;;;;20.48;57.62;99497.22;5100703;27;46245;-63
2022/05/23 07:30:00;;;;;;;;;18.00;9.50;;;;;20.51;57.51;99483.69;5100575;27;45367;-62
2022/05/23 07:32:26;;;;;;;;;9.00;7.25;;;;;20.52;57.45;99493.31;5091471;27;64447;-63
2022/05/23 07:34:51;;;;;;;;;8.50;8.00;;;;;20.55;57.77;99486.91;5085460;27;65808;-61
2022/05/23 07:37:16;;;;;;;;;8.25;8.00;;;;;20.57;57.79;99498.22;5090688;27;69688;-63
2022/05/23 07:39:42;;;;;;;;;10.75;9.75;;;;;20.59;58.60;99493.63;5099635;27;61827;-64
2022/05/23 07:42:08;;;;;;;;;10.50;9.50;;;;;20.56;57.78;99510.69;5100698;27;45400;-62
2022/05/23 07:44:35;;;;;;;;;11.50;8.50;;;;;20.55;57.60;99500.19;5084575;27;45484;-63
2022/05/23 07:47:00;;;;;;;;;10.75;8.00;;;;;20.55;57.96;99493.06;5089228;27;46101;-62
2022/05/23 07:49:27;;;;;;;;;8.25;8.25;;;;;20.58;58.06;99499.94;5093228;27;45390;-62
2022/05/23 07:51:53;;;;;;;;;8.50;7.75;;;;;20.61;57.90;99476.59;5090016;27;45349;-63
2022/05/23 08:02:31;;;;;;;;;10.50;8.00;;;;;21.21;58.03;99420.63;5100257;27;45423;-62
2022/05/23 08:04:58;;;;;;;;;10.00;9.25;;;;;21.36;57.26;99406.88;5100141;27;47855;-63
2022/05/23 08:07:23;;;;;;;;;10.00;9.25;;;;;21.53;57.47;99434.59;5083590;27;47105;-62
2022/05/23 08:09:49;;;;;;;;;10.75;9.25;;;;;21.59;57.28;99432.22;5088713;27;45234;-63
2022/05/23 08:12:15;;;;;;;;;11.00;10.00;;;;;21.61;56.84;99440.06;5093615;27;45272;-63
2022/05/23 08:14:41;;;;;;;;;11.50;9.50;;;;;21.59;57.29;99424.22;5087043;27;45395;-63
2022/05/23 08:17:06;;;;;;;;;13.00;11.75;;;;;21.61;57.89;99429.41;5088356;27;46263;-63
2022/05/23 08:19:33;;;;;;;;;11.75;10.75;;;;;21.64;58.51;99433.59;5100149;27;45241;-62
2022/05/23 08:21:58;;;;;;;;;11.25;10.25;;;;;21.64;58.85;99436.25;5085896;27;59567;-63
2022/05/23 08:24:24;;;;;;;;;12.50;11.00;;;;;21.61;59.88;99435.56;5084007;27;45684;-63
2022/05/23 08:26:49;;;;;;;;;13.50;12.00;;;;;21.57;60.49;99446.66;5091858;27;64349;-63
2022/05/23 08:29:15;;;;;;;;;16.25;12.25;;;;;21.48;61.38;99466.13;5090661;27;66157;-63
2022/05/23 08:31:40;;;;;;;;;14.50;12.00;;;;;21.32;62.98;99469.34;5084824;27;62374;-63
2022/05/23 08:34:07;;;;;;;;;12.00;9.75;;;;;21.18;62.00;99471.47;5065036;27;57233;-65
2022/05/23 08:36:33;;;;;;;;;11.00;10.50;;;;;21.03;61.77;99471.06;5096730;27;46525;-64
2022/05/23 08:38:58;;;;;;;;;13.50;12.75;;;;;20.99;62.40;99469.63;5082995;27;45757;-62
2022/05/23 08:41:44;;;;;;;;;15.00;13.00;;;;;20.95;61.96;99454.94;5089489;27;62845;-63
2022/05/23 08:44:10;;;;;;;;;14.75;12.00;;;;;20.94;62.23;99453.25;5090551;27;45311;-63
2022/05/23 08:46:56;;;;;;;;;11.50;11.50;;;;;20.91;61.66;99461.53;5102878;27;46102;-63
2022/05/23 08:49:40;;;;;;;;;11.75;10.00;;;;;20.81;61.90;99464.16;5092532;27;45215;-62
2022/05/23 08:52:37;;;;;;;;;9.50;8.50;;;;;20.74;61.59;99468.38;5089787;27;45400;-63
2022/05/23 08:55:19;;;;;;;;;12.00;9.75;;;;;20.67;61.47;99464.56;5069742;27;45539;-64
2022/05/23 08:58:02;;;;;;;;;13.25;11.75;;;;;20.60;60.82;99469.56;5073271;28;47011;-63
2022/05/23 09:00:38;;;;;;;;;11.50;11.00;;;;;20.53;60.87;99472.91;5072529;28;45181;-63
2022/05/23 09:03:36;;;;;;;;;9.75;8.50;;;;;20.41;60.91;99469.53;5080387;27;45360;-63
2022/05/23 09:06:29;;;;;;;;;10.25;10.25;;;;;20.32;60.72;99476.47;5048464;27;45455;-63
2022/05/23 09:08:58;;;;;;;;;12.00;10.50;;;;;20.27;60.85;99476.03;5082125;27;47145;-62
2022/05/23 09:11:41;;;;;;;;;10.50;9.25;;;;;20.26;61.24;99483.19;5077664;28;45316;-62
2022/05/23 09:14:08;;;;;;;;;12.00;12.00;;;;;20.29;60.95;99490.03;5091725;27;45359;-63
2022/05/23 09:16:42;;;;;;;;;8.25;8.00;;;;;20.28;61.02;99481.22;5086464;27;45342;-63
2022/05/23 09:19:18;;;;;;;;;10.00;10.00;;;;;20.32;60.78;99483.63;5084650;27;45214;-64
2022/05/23 09:24:46;;;;;;;;;9.75;9.25;;;;;20.36;60.72;99475.25;5083162;27;45451;-63
2022/05/23 09:27:40;;;;;;;;;12.25;10.75;;;;;20.36;60.10;99477.91;5089558;27;45272;-63
2022/05/23 09:30:09;;;;;;;;;12.25;11.75;;;;;20.37;59.61;99471.59;5102502;27;45613;-63
2022/05/23 09:32:38;;;;;;;;;11.25;11.00;;;;;20.38;59.89;99478.63;5100532;27;45771;-62
2022/05/23 09:35:17;;;;;;;;;11.25;11.25;;;;;20.34;60.02;99474.53;5070134;27;45330;-63
2022/05/23 09:37:46;;;;;;;;;13.00;12.00;;;;;20.33;59.69;99475.53;5089015;27;45238;-62
2022/05/23 09:40:25;;;;;;;;;11.50;11.50;;;;;20.39;59.50;99466.16;5094175;27;45489;-63
2022/05/23 09:48:22;;;;;;;;;12.75;12.25;;;;;20.52;58.93;99464.06;5083696;27;45428;-63
2022/05/23 09:50:55;;;;;;;;;11.00;10.00;;;;;20.57;59.25;99453.06;5079304;27;47458;-63
2022/05/23 09:53:34;;;;;;;;;10.25;10.25;;;;;20.62;59.00;99442.88;5094165;27;45267;-63
2022/05/23 09:56:35;;;;;;;;;12.00;10.00;;;;;20.74;58.78;99449.75;5100139;27;45419;-62
2022/05/23 09:59:04;;;;;;;;;15.00;13.00;;;;;20.80;58.60;99449.19;5046211;27;45324;-62
2022/05/23 10:01:32;;;;;;;;;15.00;13.50;;;;;20.88;57.82;99458.31;5071136;27;46116;-62
2022/05/23 10:03:58;;;;;;;;;15.25;14.75;;;;;20.88;57.33;99460.97;5093066;27;45218;-63
2022/05/23 10:06:42;;;;;;;;;20.00;15.25;;;;;20.84;57.25;99468.34;5092894;27;45356;-62
2022/05/23 10:09:09;;;;;;;;;15.75;15.00;;;;;20.80;57.57;99469.63;5090193;27;45210;-62
2022/05/23 10:11:37;;;;;;;;;14.75;13.75;;;;;20.75;57.01;99454.09;5068167;27;46326;-63
2022/05/23 10:14:05;;;;;;;;;12.00;11.25;;;;;20.77;56.75;99457.47;5071952;27;45325;-62
2022/05/23 10:16:52;;;;;;;;;16.25;15.75;;;;;20.76;57.14;99452.28;5087970;27;45374;-63
2022/05/23 10:19:43;;;;;;;;;16.00;16.00;;;;;20.77;56.46;99454.81;5091537;27;45489;-62
2022/05/23 10:22:22;;;;;;;;;18.75;17.50;;;;;20.72;56.71;99459.69;5078762;27;70691;-62
2022/05/23 10:24:55;;;;;;;;;16.50;15.00;;;;;20.70;56.81;99456.34;5099890;27;45883;-62
2022/05/23 10:27:46;;;;;;;;;21.25;17.50;;;;;20.69;57.04;99459.97;5101367;27;45438;-62
2022/05/23 10:30:14;;;;;;;;;17.75;15.25;;;;;20.69;56.74;99461.78;5063154;28;45281;-62
2022/05/23 10:32:48;;;;;;;;;21.25;18.00;;;;;20.68;56.43;99460.91;5075023;27;45633;-63
2022/05/23 10:35:13;;;;;;;;;19.50;17.50;;;;;20.65;56.40;99459.41;5081657;27;45269;-62
2022/05/23 10:37:40;;;;;;;;;20.67;18.00;;;;;20.64;56.78;99460.34;5096338;27;45311;-63
2022/05/23 10:42:57;;;;;;;;;25.75;21.00;;;;;20.55;56.78;99455.00;5082027;27;45694;-62
2022/05/23 10:45:25;;;;;;;;;28.50;22.75;;;;;20.48;57.02;99460.84;5099400;27;45406;-62
2022/05/23 10:48:03;;;;;;;;;26.00;24.00;;;;;20.42;57.14;99450.78;5100472;27;45457;-62
2022/05/23 10:50:54;;;;;;;;;24.25;21.00;;;;;20.40;57.50;99454.56;5096089;27;45473;-63
2022/05/23 10:53:22;;;;;;;;;19.00;17.00;;;;;20.39;57.84;99450.22;5099307;27;46292;-63
2022/05/23 10:56:06;;;;;;;;;21.25;19.50;;;;;20.38;58.04;99451.19;5097128;27;45866;-63
2022/05/23 10:58:31;;;;;;;;;21.00;19.50;;;;;20.36;58.27;99455.78;5094849;27;45590;-63
2022/05/23 11:01:18;;;;;;;;;22.00;19.67;;;;;20.34;58.28;99449.78;5093032;27;45318;-62
2022/05/23 11:04:11;;;;;;;;;18.25;18.25;;;;;20.31;58.51;99445.59;5064600;27;45453;-63
2022/05/23 11:06:58;;;;;;;;;25.50;22.50;;;;;20.32;58.70;99436.63;5093033;27;45299;-63
2022/05/23 11:09:29;;;;;;;;;28.50;24.50;;;;;20.29;58.85;99448.38;5101187;27;45288;-62
2022/05/23 11:12:22;;;;;;;;;25.25;20.75;;;;;20.24;58.61;99449.78;5082536;27;45293;-62
2022/05/23 11:15:02;;;;;;;;;25.00;23.00;;;;;20.14;58.46;99478.94;5093772;27;45719;-62
2022/05/23 11:18:10;;;;;;;;;20.25;20.25;;;;;20.03;58.65;99474.56;5080035;27;45532;-62
2022/05/23 11:20:37;;;;;;;;;30.00;26.50;;;;;19.96;59.17;99468.09;5054272;27;45348;-63
2022/05/23 11:23:11;;;;;;;;;25.50;21.75;;;;;19.89;58.67;99454.50;5094652;27;45335;-61
2022/05/23 11:25:39;;;;;;;;;23.50;21.00;;;;;19.85;59.09;99450.44;5090448;27;45223;-61
2022/05/23 11:33:58;;;;;;;;;30.75;27.25;;;;;19.77;60.73;99460.03;5092867;27;45200;-62
2022/05/23 11:36:33;;;;;;;;;26.75;24.25;;;;;19.71;60.67;99454.25;5097766;27;46125;-61
2022/05/23 11:38:59;;;;;;;;;25.75;22.25;;;;;19.75;60.35;99465.47;5094192;27;45826;-62
2022/05/23 11:41:41;;;;;;;;;24.00;21.50;;;;;19.76;60.65;99471.63;5081768;27;45388;-61
2022/05/23 11:44:45;;;;;;;;;26.75;23.25;;;;;19.93;61.58;99468.38;5100343;27;45584;-61
2022/05/23 11:47:21;;;;;;;;;26.00;24.75;;;;;20.21;61.04;99468.63;5092792;27;46930;-61
2022/05/23 11:50:16;;;;;;;;;22.75;21.25;;;;;20.44;60.74;99466.59;5082298;27;45756;-61
2022/05/23 11:52:48;;;;;;;;;26.25;24.75;;;;;20.66;59.74;99462.88;5066070;28;45465;-61
2022/05/23 11:55:52;;;;;;;;;23.25;20.25;;;;;20.75;59.20;99469.19;5068893;27;45524;-61
2022/05/23 11:58:24;;;;;;;;;24.00;20.25;;;;;20.65;59.35;99479.84;5099069;27;46252;-61
2022/05/23 12:01:03;;;;;;;;;25.75;21.50;;;;;20.49;59.45;99475.84;5095547;27;45880;-61
2022/05/23 12:03:51;;;;;;;;;19.00;17.50;;;;;20.32;59.79;99478.31;5086538;27;45387;-61
2022/05/23 12:06:22;;;;;;;;;22.00;19.00;;;;;20.16;59.87;99476.16;5086370;27;45388;-61
2022/05/23 12:09:06;;;;;;;;;25.50;23.00;;;;;20.08;60.42;99479.50;5094025;27;45279;-62
2022/05/23 12:11:40;;;;;;;;;28.00;26.00;;;;;20.00;60.49;99488.09;5103443;27;46085;-62
2022/05/23 12:14:18;;;;;;;;;22.00;19.25;;;;;19.87;60.52;99490.16;5077009;27;45474;-62
2022/05/23 12:17:09;;;;;;;;;19.25;17.50;;;;;19.70;60.53;99492.38;5089413;27;45550;-62
2022/05/23 12:19:40;;;;;;;;;24.25;21.00;;;;;19.57;60.93;99494.41;5046463;27;45351;-62
2022/05/23 12:22:32;;;;;;;;;32.25;24.75;;;;;19.47;60.95;99504.09;5090229;27;45302;-62
2022/05/23 12:25:09;;;;;;;;;36.25;24.00;;;;;19.38;61.25;99503.06;5085126;27;45400;-62
2022/05/23 12:27:38;;;;;;;;;28.25;21.75;;;;;19.33;61.32;99513.22;5083129;27;45308;-62
2022/05/23 12:30:23;;;;;;;;;21.25;20.25;;;;;19.26;61.25;99510.22;5068254;27;48534;-62
2022/05/23 12:33:00;;;;;;;;;19.75;18.25;;;;;19.24;60.91;99521.94;5097937;27;45326;-64
2022/05/23 12:35:48;;;;;;;;;23.25;18.25;;;;;19.22;61.26;99510.63;5089951;27;45493;-62